首页
METAR-TAF:

METAR-TAF

机场 :

多特蒙德机场

多特蒙德, 德国

纬度: 51-31N, 经度: 007-37E, 海拔: 127米

当前天气观测

该预报发布于29分钟前的02:50 UTC
风速9节,风向南转西南
温度 12°C
湿度 88%
气压 1012 hPa
能见度10公里或以上

METAR: EDLW 240250Z AUTO 21009KT 9999 // OVC027/// 12/10 Q1012

时间: 05:19 (03:19 UTC)

预报

该预报发布于10小时和19分钟前的17:00 UTC
预报有效从23日的 18点(UTC)到 24日的 18点(UTC)
风速6节,风向南转西南
能见度10公里或以上
多云层高于2000英尺
成为
从 23日的 21点(UTC)到 23日的 24点(UTC)
风速12节,风向南转西南
短暂存在
从 24日的 11点(UTC)到 24日的 17点(UTC)
风速15节,风向南转西南,有时为25节阵风

TAF: EDLW 231700Z 2318/2418 21006KT 9999 BKN020 BECMG 2321/2324 21012KT TEMPO 2411/2417 21015G25KT

超过4000个机场的气象观测和天气预报(METAR&TAF报告)。

可查询的气象台以黄色和红色小点在地图上表示。

将鼠标移到小点上方,可查看气象台名称。

然后点击查看天气观测和预报。

如需切换地图:点击带黑十字的绿色按钮放大地图;点击带横线的绿色按钮缩小地图;或者点击绿色箭头查看邻近地区的地图。


METAR-TAF: